EGE weather

Eagle County Regional Airport
Eagle, Colorado, United States

Public forecast

Using degrees Fahrenheit for public forecast. Weather courtesy of forecast.io.

Current aviation weather report (METAR) for Eagle County Regional Airport

Retrieved 2019/11/12 21:56 UTC (50 minutes ago):

KEGE 122156Z 08003KT 10SM CLR 08/M12 A3023 RMK AO2 SLP268 T00831122

Aviation forecast (TAF) for Eagle County Regional Airport

Retrieved 2019/11/12 18:28 UTC (4 hours ago):

TAF KEGE 121726Z 1218/1318 VRB03KT P6SM SKC FM130300 11004KT P6SM FEW180 FM131200 VRB03KT P6SM SCT250